sensor_id;sensor_type;location;lat;lon;timestamp;P1;durP1;ratioP1;P2;durP2;ratioP2
55720;SDS011;41626;53.098;6.168;2023-03-01T15:29:50;15.53;;;12.03;;
55720;SDS011;41626;53.098;6.168;2023-03-01T15:34:51;13.30;;;11.63;;
55720;SDS011;41626;53.098;6.168;2023-03-01T15:42:46;14.00;;;12.02;;
55720;SDS011;41626;53.098;6.168;2023-03-01T15:47:46;14.77;;;13.27;;
55720;SDS011;41626;53.098;6.168;2023-03-01T15:50:32;15.10;;;13.50;;
55720;SDS011;41626;53.098;6.168;2023-03-01T15:53:01;15.20;;;13.13;;
55720;SDS011;41626;53.098;6.168;2023-03-01T15:55:32;15.10;;;13.07;;
55720;SDS011;41626;53.098;6.168;2023-03-01T15:58:14;14.60;;;12.95;;
55720;SDS011;41626;53.098;6.168;2023-03-01T16:00:40;13.63;;;12.20;;
55720;SDS011;41626;53.098;6.168;2023-03-01T16:03:08;15.75;;;13.63;;
55720;SDS011;41626;53.098;6.168;2023-03-01T16:05:36;15.55;;;13.93;;
55720;SDS011;41626;53.098;6.168;2023-03-01T16:08:03;14.88;;;13.35;;
55720;SDS011;41626;53.098;6.168;2023-03-01T16:10:31;14.43;;;13.02;;
55720;SDS011;41626;53.098;6.168;2023-03-01T16:12:57;14.90;;;13.15;;
55720;SDS011;41626;53.098;6.168;2023-03-01T16:17:51;16.73;;;13.90;;
55720;SDS011;41626;53.098;6.168;2023-03-01T16:20:17;15.47;;;13.20;;
55720;SDS011;41626;53.098;6.168;2023-03-01T16:22:43;16.48;;;13.13;;
55720;SDS011;41626;53.098;6.168;2023-03-01T16:25:10;15.35;;;13.63;;
55720;SDS011;41626;53.098;6.168;2023-03-01T16:27:38;15.43;;;13.93;;
55720;SDS011;41626;53.098;6.168;2023-03-01T16:30:06;16.85;;;15.15;;
55720;SDS011;41626;53.098;6.168;2023-03-01T16:32:37;14.13;;;12.57;;
55720;SDS011;41626;53.098;6.168;2023-03-01T16:35:06;15.30;;;13.50;;
55720;SDS011;41626;53.098;6.168;2023-03-01T16:37:34;15.83;;;13.43;;
55720;SDS011;41626;53.098;6.168;2023-03-01T16:40:00;14.82;;;13.27;;
55720;SDS011;41626;53.098;6.168;2023-03-01T16:42:27;15.55;;;13.75;;
55720;SDS011;41626;53.098;6.168;2023-03-01T16:44:56;14.63;;;13.00;;
55720;SDS011;41626;53.098;6.168;2023-03-01T16:47:22;15.43;;;13.82;;
55720;SDS011;41626;53.098;6.168;2023-03-01T16:49:51;16.63;;;13.47;;
55720;SDS011;41626;53.098;6.168;2023-03-01T16:52:17;15.23;;;13.20;;
55720;SDS011;41626;53.098;6.168;2023-03-01T16:54:43;14.20;;;12.73;;
55720;SDS011;41626;53.098;6.168;2023-03-01T16:57:09;14.90;;;13.05;;
55720;SDS011;41626;53.098;6.168;2023-03-01T16:59:35;15.45;;;12.82;;
55720;SDS011;41626;53.098;6.168;2023-03-01T17:02:02;16.13;;;13.38;;
55720;SDS011;41626;53.098;6.168;2023-03-01T17:04:28;18.67;;;15.95;;
55720;SDS011;41626;53.098;6.168;2023-03-01T17:06:54;18.73;;;14.85;;
55720;SDS011;41626;53.098;6.168;2023-03-01T17:09:19;17.70;;;14.93;;
55720;SDS011;41626;53.098;6.168;2023-03-01T17:11:47;16.85;;;14.80;;
55720;SDS011;41626;53.098;6.168;2023-03-01T17:14:14;18.88;;;16.05;;
55720;SDS011;41626;53.098;6.168;2023-03-01T17:16:41;19.65;;;17.50;;
55720;SDS011;41626;53.098;6.168;2023-03-01T17:19:07;18.60;;;16.63;;
55720;SDS011;41626;53.098;6.168;2023-03-01T17:21:32;20.10;;;17.93;;
55720;SDS011;41626;53.098;6.168;2023-03-01T17:23:58;18.30;;;16.10;;
55720;SDS011;41626;53.098;6.168;2023-03-01T17:26:25;19.70;;;17.23;;
55720;SDS011;41626;53.098;6.168;2023-03-01T17:28:53;19.30;;;17.20;;
55720;SDS011;41626;53.098;6.168;2023-03-01T17:31:19;20.15;;;17.77;;
55720;SDS011;41626;53.098;6.168;2023-03-01T17:33:45;20.10;;;18.00;;
55720;SDS011;41626;53.098;6.168;2023-03-01T17:36:11;20.60;;;17.03;;
55720;SDS011;41626;53.098;6.168;2023-03-01T17:38:36;19.73;;;16.83;;
55720;SDS011;41626;53.098;6.168;2023-03-01T17:41:03;20.87;;;17.43;;
55720;SDS011;41626;53.098;6.168;2023-03-01T17:43:29;20.40;;;17.90;;
55720;SDS011;41626;53.098;6.168;2023-03-01T17:45:56;19.52;;;17.27;;
55720;SDS011;41626;53.098;6.168;2023-03-01T17:48:22;18.45;;;16.45;;
55720;SDS011;41626;53.098;6.168;2023-03-01T17:50:48;21.33;;;17.60;;
55720;SDS011;41626;53.098;6.168;2023-03-01T17:53:14;19.47;;;15.77;;
55720;SDS011;41626;53.098;6.168;2023-03-01T17:55:40;20.75;;;16.95;;
55720;SDS011;41626;53.098;6.168;2023-03-01T17:58:08;18.83;;;15.70;;
55720;SDS011;41626;53.098;6.168;2023-03-01T18:00:36;17.63;;;15.73;;
55720;SDS011;41626;53.098;6.168;2023-03-01T18:03:02;19.42;;;16.85;;
55720;SDS011;41626;53.098;6.168;2023-03-01T18:05:32;20.73;;;16.73;;
55720;SDS011;41626;53.098;6.168;2023-03-01T18:07:59;20.20;;;16.58;;
55720;SDS011;41626;53.098;6.168;2023-03-01T18:10:25;22.23;;;17.50;;
55720;SDS011;41626;53.098;6.168;2023-03-01T18:12:51;21.50;;;16.93;;
55720;SDS011;41626;53.098;6.168;2023-03-01T18:15:17;18.77;;;15.68;;
55720;SDS011;41626;53.098;6.168;2023-03-01T18:17:42;18.55;;;16.05;;
55720;SDS011;41626;53.098;6.168;2023-03-01T18:20:08;24.38;;;16.13;;
55720;SDS011;41626;53.098;6.168;2023-03-01T18:22:35;18.73;;;16.52;;
55720;SDS011;41626;53.098;6.168;2023-03-01T18:25:02;22.52;;;15.63;;
55720;SDS011;41626;53.098;6.168;2023-03-01T18:27:29;17.60;;;15.63;;
55720;SDS011;41626;53.098;6.168;2023-03-01T18:29:55;19.23;;;15.93;;
55720;SDS011;41626;53.098;6.168;2023-03-01T18:32:21;16.52;;;14.80;;
55720;SDS011;41626;53.098;6.168;2023-03-01T18:34:47;17.98;;;14.90;;
55720;SDS011;41626;53.098;6.168;2023-03-01T18:37:13;17.60;;;15.73;;
55720;SDS011;41626;53.098;6.168;2023-03-01T18:39:39;19.98;;;16.73;;
55720;SDS011;41626;53.098;6.168;2023-03-01T18:42:05;17.90;;;15.98;;
55720;SDS011;41626;53.098;6.168;2023-03-01T18:44:31;18.50;;;16.47;;
55720;SDS011;41626;53.098;6.168;2023-03-01T18:46:57;19.23;;;16.40;;
55720;SDS011;41626;53.098;6.168;2023-03-01T18:49:23;18.17;;;16.05;;
55720;SDS011;41626;53.098;6.168;2023-03-01T18:51:50;20.13;;;16.38;;
55720;SDS011;41626;53.098;6.168;2023-03-01T18:54:16;20.50;;;16.95;;
55720;SDS011;41626;53.098;6.168;2023-03-01T18:56:43;18.20;;;16.10;;
55720;SDS011;41626;53.098;6.168;2023-03-01T18:59:09;18.42;;;16.63;;
55720;SDS011;41626;53.098;6.168;2023-03-01T19:01:35;21.88;;;17.88;;
55720;SDS011;41626;53.098;6.168;2023-03-01T19:04:02;19.23;;;17.20;;
55720;SDS011;41626;53.098;6.168;2023-03-01T19:06:29;22.27;;;18.98;;
55720;SDS011;41626;53.098;6.168;2023-03-01T19:08:56;20.75;;;18.55;;
55720;SDS011;41626;53.098;6.168;2023-03-01T19:11:23;20.85;;;18.67;;
55720;SDS011;41626;53.098;6.168;2023-03-01T19:13:51;21.85;;;19.63;;
55720;SDS011;41626;53.098;6.168;2023-03-01T19:16:22;19.57;;;17.57;;
55720;SDS011;41626;53.098;6.168;2023-03-01T19:18:53;21.83;;;19.58;;
55720;SDS011;41626;53.098;6.168;2023-03-01T19:21:21;22.77;;;20.40;;
55720;SDS011;41626;53.098;6.168;2023-03-01T19:23:49;22.38;;;20.08;;
55720;SDS011;41626;53.098;6.168;2023-03-01T19:26:16;21.60;;;19.43;;
55720;SDS011;41626;53.098;6.168;2023-03-01T19:28:44;22.00;;;19.67;;
55720;SDS011;41626;53.098;6.168;2023-03-01T19:31:12;22.53;;;20.13;;
55720;SDS011;41626;53.098;6.168;2023-03-01T19:33:39;21.30;;;19.10;;
55720;SDS011;41626;53.098;6.168;2023-03-01T19:36:06;22.23;;;19.17;;
55720;SDS011;41626;53.098;6.168;2023-03-01T19:38:33;22.95;;;20.40;;
55720;SDS011;41626;53.098;6.168;2023-03-01T19:41:03;24.65;;;20.90;;
55720;SDS011;41626;53.098;6.168;2023-03-01T19:43:30;21.70;;;19.33;;
55720;SDS011;41626;53.098;6.168;2023-03-01T19:45:55;22.55;;;20.25;;
55720;SDS011;41626;53.098;6.168;2023-03-01T19:48:21;22.83;;;19.17;;
55720;SDS011;41626;53.098;6.168;2023-03-01T19:50:47;21.83;;;19.63;;
55720;SDS011;41626;53.098;6.168;2023-03-01T19:53:15;22.42;;;20.23;;
55720;SDS011;41626;53.098;6.168;2023-03-01T19:55:40;22.45;;;20.05;;
55720;SDS011;41626;53.098;6.168;2023-03-01T19:58:06;23.33;;;20.98;;
55720;SDS011;41626;53.098;6.168;2023-03-01T20:00:34;24.03;;;21.67;;
55720;SDS011;41626;53.098;6.168;2023-03-01T20:03:00;24.17;;;21.58;;
55720;SDS011;41626;53.098;6.168;2023-03-01T20:05:26;23.90;;;21.40;;
55720;SDS011;41626;53.098;6.168;2023-03-01T20:07:54;24.67;;;22.00;;
55720;SDS011;41626;53.098;6.168;2023-03-01T20:10:22;24.73;;;22.15;;
55720;SDS011;41626;53.098;6.168;2023-03-01T20:12:51;25.10;;;22.50;;
55720;SDS011;41626;53.098;6.168;2023-03-01T20:15:17;24.27;;;21.80;;
55720;SDS011;41626;53.098;6.168;2023-03-01T20:17:43;24.63;;;22.02;;
55720;SDS011;41626;53.098;6.168;2023-03-01T20:20:08;25.17;;;22.13;;
55720;SDS011;41626;53.098;6.168;2023-03-01T20:22:35;25.20;;;22.23;;
55720;SDS011;41626;53.098;6.168;2023-03-01T20:25:00;25.20;;;22.63;;
55720;SDS011;41626;53.098;6.168;2023-03-01T20:27:26;25.15;;;22.48;;
55720;SDS011;41626;53.098;6.168;2023-03-01T20:29:52;24.45;;;21.90;;
55720;SDS011;41626;53.098;6.168;2023-03-01T20:32:17;25.65;;;23.05;;
55720;SDS011;41626;53.098;6.168;2023-03-01T20:34:43;27.50;;;23.52;;
55720;SDS011;41626;53.098;6.168;2023-03-01T20:37:09;25.10;;;22.58;;
55720;SDS011;41626;53.098;6.168;2023-03-01T20:39:35;24.48;;;21.98;;
55720;SDS011;41626;53.098;6.168;2023-03-01T20:42:00;25.27;;;22.58;;
55720;SDS011;41626;53.098;6.168;2023-03-01T20:44:26;27.38;;;24.30;;
55720;SDS011;41626;53.098;6.168;2023-03-01T20:46:51;25.40;;;22.77;;
55720;SDS011;41626;53.098;6.168;2023-03-01T20:49:17;26.88;;;23.98;;
55720;SDS011;41626;53.098;6.168;2023-03-01T20:51:44;26.90;;;24.02;;
55720;SDS011;41626;53.098;6.168;2023-03-01T20:54:10;26.70;;;23.93;;
55720;SDS011;41626;53.098;6.168;2023-03-01T20:56:35;27.63;;;24.37;;
55720;SDS011;41626;53.098;6.168;2023-03-01T20:59:05;27.25;;;24.45;;
55720;SDS011;41626;53.098;6.168;2023-03-01T21:01:33;29.08;;;24.88;;
55720;SDS011;41626;53.098;6.168;2023-03-01T21:04:00;27.45;;;23.77;;
55720;SDS011;41626;53.098;6.168;2023-03-01T21:06:26;28.25;;;24.27;;
55720;SDS011;41626;53.098;6.168;2023-03-01T21:08:53;27.98;;;24.98;;
55720;SDS011;41626;53.098;6.168;2023-03-01T21:11:20;28.40;;;25.40;;
55720;SDS011;41626;53.098;6.168;2023-03-01T21:13:49;30.45;;;25.38;;
55720;SDS011;41626;53.098;6.168;2023-03-01T21:16:16;28.92;;;25.92;;
55720;SDS011;41626;53.098;6.168;2023-03-01T21:18:43;29.33;;;26.08;;
55720;SDS011;41626;53.098;6.168;2023-03-01T21:21:17;28.15;;;25.02;;
55720;SDS011;41626;53.098;6.168;2023-03-01T21:23:44;29.95;;;26.63;;
55720;SDS011;41626;53.098;6.168;2023-03-01T21:26:17;29.55;;;26.45;;
55720;SDS011;41626;53.098;6.168;2023-03-01T21:28:45;29.52;;;26.17;;
55720;SDS011;41626;53.098;6.168;2023-03-01T21:33:38;30.47;;;26.07;;
55720;SDS011;41626;53.098;6.168;2023-03-01T21:36:05;29.98;;;26.80;;
55720;SDS011;41626;53.098;6.168;2023-03-01T21:38:33;34.22;;;28.58;;
55720;SDS011;41626;53.098;6.168;2023-03-01T21:41:05;30.43;;;26.37;;
55720;SDS011;41626;53.098;6.168;2023-03-01T21:43:36;32.70;;;27.13;;
55720;SDS011;41626;53.098;6.168;2023-03-01T21:46:03;30.85;;;26.23;;
55720;SDS011;41626;53.098;6.168;2023-03-01T21:48:31;34.60;;;29.02;;
55720;SDS011;41626;53.098;6.168;2023-03-01T21:50:58;30.20;;;27.00;;
55720;SDS011;41626;53.098;6.168;2023-03-01T21:53:24;34.85;;;28.95;;
55720;SDS011;41626;53.098;6.168;2023-03-01T21:55:51;32.33;;;27.88;;
55720;SDS011;41626;53.098;6.168;2023-03-01T21:58:17;34.20;;;27.67;;
55720;SDS011;41626;53.098;6.168;2023-03-01T22:00:44;32.80;;;28.02;;
55720;SDS011;41626;53.098;6.168;2023-03-01T22:03:11;32.88;;;28.80;;
55720;SDS011;41626;53.098;6.168;2023-03-01T22:05:37;32.15;;;27.38;;
55720;SDS011;41626;53.098;6.168;2023-03-01T22:08:03;31.00;;;26.83;;
55720;SDS011;41626;53.098;6.168;2023-03-01T22:10:29;35.30;;;28.38;;
55720;SDS011;41626;53.098;6.168;2023-03-01T22:12:56;33.45;;;28.52;;
55720;SDS011;41626;53.098;6.168;2023-03-01T22:15:24;31.98;;;28.50;;
55720;SDS011;41626;53.098;6.168;2023-03-01T22:17:50;31.23;;;27.92;;
55720;SDS011;41626;53.098;6.168;2023-03-01T22:20:17;32.95;;;29.35;;
55720;SDS011;41626;53.098;6.168;2023-03-01T22:22:43;37.08;;;29.38;;
55720;SDS011;41626;53.098;6.168;2023-03-01T22:25:09;34.63;;;28.83;;
55720;SDS011;41626;53.098;6.168;2023-03-01T22:27:35;35.97;;;30.02;;
55720;SDS011;41626;53.098;6.168;2023-03-01T22:30:05;36.63;;;30.60;;
55720;SDS011;41626;53.098;6.168;2023-03-01T22:32:33;35.58;;;29.65;;
55720;SDS011;41626;53.098;6.168;2023-03-01T22:34:58;38.47;;;30.97;;
55720;SDS011;41626;53.098;6.168;2023-03-01T22:37:24;35.77;;;30.67;;
55720;SDS011;41626;53.098;6.168;2023-03-01T22:39:50;35.22;;;30.02;;
55720;SDS011;41626;53.098;6.168;2023-03-01T22:42:16;37.83;;;30.83;;
55720;SDS011;41626;53.098;6.168;2023-03-01T22:44:43;40.45;;;30.45;;
55720;SDS011;41626;53.098;6.168;2023-03-01T22:47:08;36.90;;;30.98;;
55720;SDS011;41626;53.098;6.168;2023-03-01T22:49:34;36.33;;;30.17;;
55720;SDS011;41626;53.098;6.168;2023-03-01T22:52:00;34.65;;;29.77;;
55720;SDS011;41626;53.098;6.168;2023-03-01T22:54:26;38.95;;;29.75;;
55720;SDS011;41626;53.098;6.168;2023-03-01T22:56:52;35.53;;;30.55;;
55720;SDS011;41626;53.098;6.168;2023-03-01T22:59:19;30.83;;;27.27;;
55720;SDS011;41626;53.098;6.168;2023-03-01T23:01:49;32.63;;;26.80;;
55720;SDS011;41626;53.098;6.168;2023-03-01T23:04:16;33.35;;;26.73;;
55720;SDS011;41626;53.098;6.168;2023-03-01T23:06:43;31.05;;;26.05;;
55720;SDS011;41626;53.098;6.168;2023-03-01T23:09:23;32.40;;;26.23;;
55720;SDS011;41626;53.098;6.168;2023-03-01T23:11:52;31.30;;;25.25;;
55720;SDS011;41626;53.098;6.168;2023-03-01T23:14:19;30.95;;;25.70;;
55720;SDS011;41626;53.098;6.168;2023-03-01T23:16:45;31.20;;;25.58;;
55720;SDS011;41626;53.098;6.168;2023-03-01T23:19:12;29.02;;;24.48;;
55720;SDS011;41626;53.098;6.168;2023-03-01T23:21:40;29.35;;;24.60;;
55720;SDS011;41626;53.098;6.168;2023-03-01T23:24:11;26.17;;;22.33;;
55720;SDS011;41626;53.098;6.168;2023-03-01T23:26:37;22.23;;;19.85;;
55720;SDS011;41626;53.098;6.168;2023-03-01T23:29:04;21.95;;;19.58;;
55720;SDS011;41626;53.098;6.168;2023-03-01T23:31:31;25.10;;;21.00;;
55720;SDS011;41626;53.098;6.168;2023-03-01T23:33:57;23.60;;;20.55;;
55720;SDS011;41626;53.098;6.168;2023-03-01T23:36:28;21.33;;;19.00;;
55720;SDS011;41626;53.098;6.168;2023-03-01T23:38:59;21.73;;;19.48;;
55720;SDS011;41626;53.098;6.168;2023-03-01T23:41:30;23.95;;;21.45;;
55720;SDS011;41626;53.098;6.168;2023-03-01T23:43:58;23.80;;;21.20;;
55720;SDS011;41626;53.098;6.168;2023-03-01T23:46:27;25.10;;;19.53;;
55720;SDS011;41626;53.098;6.168;2023-03-01T23:48:54;21.42;;;19.10;;
55720;SDS011;41626;53.098;6.168;2023-03-01T23:51:20;23.00;;;20.50;;
55720;SDS011;41626;53.098;6.168;2023-03-01T23:53:48;24.40;;;21.80;;
55720;SDS011;41626;53.098;6.168;2023-03-01T23:56:29;24.90;;;21.50;;
55720;SDS011;41626;53.098;6.168;2023-03-01T23:59:00;23.95;;;21.38;;
